Time;durP1;ratioP1;P1;durP2;ratioP2;P2;SDS_P1;SDS_P2;PMS_P1;PMS_P2;Temp;Humidity;BMP_temperature;BMP_pressure;BME280_temperature;BME280_humidity;BME280_pressure;Samples;Min_cycle;Max_cycle;Signal;HPM_P1;HPM_P2
2022/07/03 00:00:57;;;;;;;8.40;5.47;;;;;;;23.92;56.72;99630.81;5031973;28;20021;-95
2022/07/03 00:03:23;;;;;;;11.98;5.57;;;;;;;23.86;57.38;99645.97;5081273;28;20098;-95
2022/07/03 00:05:48;;;;;;;11.13;5.97;;;;;;;23.80;57.73;99639.94;5027199;28;20028;-93
2022/07/03 00:08:14;;;;;;;6.13;5.45;;;;;;;23.80;57.06;99628.94;5025365;28;20486;-93
2022/07/03 00:10:39;;;;;;;6.60;5.57;;;;;;;23.86;56.25;99625.94;5041692;28;20059;-94
2022/07/03 00:13:05;;;;;;;7.32;5.30;;;;;;;23.92;56.21;99628.06;5025559;28;20047;-93
2022/07/03 00:15:30;;;;;;;5.82;4.88;;;;;;;23.93;56.05;99635.19;5024907;28;20054;-96
2022/07/03 00:17:56;;;;;;;8.85;5.28;;;;;;;23.94;55.43;99631.25;5024807;28;20035;-93
2022/07/03 00:20:22;;;;;;;5.60;5.10;;;;;;;23.92;55.58;99625.31;5024953;28;20032;-93
2022/07/03 00:22:47;;;;;;;11.73;5.40;;;;;;;23.83;55.74;99618.41;5025174;28;20391;-93
2022/07/03 00:25:13;;;;;;;10.68;5.20;;;;;;;23.86;55.70;99625.94;5024783;28;20052;-93
2022/07/03 00:27:39;;;;;;;10.38;5.32;;;;;;;23.78;55.93;99619.44;5024987;28;20021;-93
2022/07/03 00:30:07;;;;;;;10.50;4.93;;;;;;;23.84;55.68;99630.97;5025238;28;20055;-95
2022/07/03 00:32:33;;;;;;;7.25;5.15;;;;;;;23.82;55.77;99634.06;5025083;28;20063;-94
2022/07/03 00:34:58;;;;;;;7.65;5.18;;;;;;;23.64;56.23;99628.06;5024879;28;20044;-94
2022/07/03 00:37:27;;;;;;;6.75;5.45;;;;;;;23.51;57.22;99643.81;5025217;28;20039;-94
2022/07/03 00:39:52;;;;;;;7.60;5.68;;;;;;;23.46;57.00;99633.06;5025229;28;20029;-91
2022/07/03 00:42:18;;;;;;;6.60;5.03;;;;;;;23.50;56.66;99625.72;5024581;28;20225;-91
2022/07/03 00:44:54;;;;;;;7.32;5.75;;;;;;;23.40;57.44;99637.97;5040788;28;20564;-91
2022/07/03 00:47:21;;;;;;;7.25;5.38;;;;;;;23.21;58.14;99624.09;5041349;28;20027;-91
2022/07/03 00:49:48;;;;;;;7.90;5.43;;;;;;;23.15;59.24;99626.25;5023987;28;20060;-91
2022/07/03 00:52:14;;;;;;;7.63;5.80;;;;;;;22.97;59.70;99616.66;5024667;28;20128;-90
2022/07/03 00:54:48;;;;;;;9.23;5.85;;;;;;;22.95;59.91;99622.50;5024586;28;20058;-91
2022/07/03 00:57:15;;;;;;;8.63;5.68;;;;;;;22.81;59.38;99616.56;5025081;28;20542;-91
2022/07/03 00:59:40;;;;;;;7.05;6.30;;;;;;;22.77;59.76;99626.63;5040653;28;20467;-91
2022/07/03 01:02:06;;;;;;;14.30;6.10;;;;;;;22.60;60.34;99609.25;5024109;28;20054;-93
2022/07/03 01:04:52;;;;;;;9.93;5.65;;;;;;;22.57;60.80;99614.63;5024184;28;20031;-91
2022/07/03 01:08:00;;;;;;;12.50;5.85;;;;;;;22.57;61.47;99626.41;5024655;28;20445;-93
2022/07/03 01:11:02;;;;;;;11.75;6.68;;;;;;;22.36;61.78;99606.50;5049151;28;20032;-91
2022/07/03 01:13:46;;;;;;;10.70;6.80;;;;;;;22.43;61.81;99622.38;5042982;28;20020;-91
2022/07/03 01:16:27;;;;;;;11.25;7.55;;;;;;;22.34;62.63;99620.56;5056991;28;20029;-91
2022/07/03 01:19:03;;;;;;;9.55;6.85;;;;;;;22.21;62.51;99607.94;5040108;28;20024;-92
2022/07/03 01:21:44;;;;;;;11.15;6.40;;;;;;;22.15;62.90;99614.78;5056677;28;20071;-91
2022/07/03 01:24:31;;;;;;;10.13;6.72;;;;;;;22.15;63.09;99617.53;5024096;28;20025;-91
2022/07/03 01:27:00;;;;;;;11.30;6.93;;;;;;;22.08;63.51;99617.28;5059638;28;20123;-92
2022/07/03 01:29:29;;;;;;;9.52;7.05;;;;;;;21.95;63.76;99608.22;5027555;28;20057;-95
2022/07/03 01:31:55;;;;;;;14.55;6.80;;;;;;;21.89;63.80;99604.88;5027671;28;20043;-94
2022/07/03 01:34:20;;;;;;;13.75;8.30;;;;;;;21.92;63.71;99595.22;5027325;28;20024;-94
2022/07/03 01:36:47;;;;;;;15.02;8.18;;;;;;;21.88;64.36;99597.03;5026867;28;20024;-94
2022/07/03 01:39:12;;;;;;;11.38;8.98;;;;;;;21.84;64.37;99607.06;5026151;28;20025;-94
2022/07/03 01:41:38;;;;;;;12.65;9.25;;;;;;;21.91;64.19;99608.09;5025254;28;20406;-94
2022/07/03 01:44:04;;;;;;;11.88;8.60;;;;;;;21.81;64.51;99614.03;5042750;28;20024;-94
2022/07/03 01:46:30;;;;;;;9.35;7.25;;;;;;;21.72;64.28;99603.13;5023887;28;20020;-92
2022/07/03 01:48:56;;;;;;;14.07;6.97;;;;;;;21.78;64.31;99609.22;5023590;28;20025;-94
2022/07/03 01:51:25;;;;;;;9.45;7.18;;;;;;;21.72;64.77;99622.31;5020067;28;20041;-94
2022/07/03 01:53:51;;;;;;;12.00;7.55;;;;;;;21.73;64.88;99628.63;5021456;28;20017;-94
2022/07/03 01:56:17;;;;;;;10.63;7.50;;;;;;;21.63;64.71;99620.81;5019745;28;20529;-93
2022/07/03 01:58:43;;;;;;;9.23;7.40;;;;;;;21.61;65.08;99625.81;5019691;28;20027;-93
2022/07/03 02:01:14;;;;;;;10.00;7.47;;;;;;;21.63;65.46;99626.28;5019569;28;20016;-93
2022/07/03 02:03:41;;;;;;;;;;;;;;;21.64;65.25;99633.38;5053298;28;20031;-94
2022/07/03 02:06:10;;;;;;;8.25;6.90;;;;;;;21.49;65.45;99612.88;5035977;28;19912;-94
2022/07/03 02:08:51;;;;;;;13.55;7.72;;;;;;;21.33;65.21;99602.50;5020553;28;20077;-95
2022/07/03 02:11:18;;;;;;;10.32;8.63;;;;;;;21.33;65.47;99604.41;5020673;28;20098;-93
2022/07/03 02:13:52;;;;;;;9.70;7.68;;;;;;;21.49;65.34;99621.88;5019521;28;20017;-93
2022/07/03 02:16:23;;;;;;;10.20;7.43;;;;;;;21.37;65.23;99603.44;5052430;28;20031;-95
2022/07/03 02:19:07;;;;;;;12.23;8.15;;;;;;;21.38;65.37;99615.19;5019590;28;20112;-94
2022/07/03 02:21:33;;;;;;;13.43;7.43;;;;;;;21.30;65.60;99616.84;5021557;28;20052;-94
2022/07/03 02:24:16;;;;;;;13.07;7.63;;;;;;;21.31;65.22;99620.38;5019391;28;20057;-95
2022/07/03 02:26:42;;;;;;;13.52;7.38;;;;;;;21.28;65.59;99626.53;5036107;28;20124;-95
2022/07/03 02:29:12;;;;;;;12.38;8.07;;;;;;;21.08;65.81;99598.00;5019437;28;20029;-94
2022/07/03 02:31:39;;;;;;;17.45;8.23;;;;;;;21.08;65.73;99607.00;5020103;28;20025;-94
2022/07/03 02:34:05;;;;;;;11.20;7.95;;;;;;;21.09;66.27;99625.06;5019441;28;20466;-95
2022/07/03 02:36:31;;;;;;;19.27;8.70;;;;;;;21.07;65.78;99613.63;5019786;28;20104;-93
2022/07/03 02:38:57;;;;;;;13.05;7.72;;;;;;;21.07;65.91;99621.84;5019102;28;20028;-96
2022/07/03 02:41:46;;;;;;;15.60;7.70;;;;;;;21.08;66.51;99634.41;5019108;28;20116;-93
2022/07/03 02:44:32;;;;;;;15.63;8.35;;;;;;;20.95;67.25;99619.81;5020585;28;20029;-94
2022/07/03 02:47:39;;;;;;;10.00;7.70;;;;;;;20.96;67.03;99634.34;5020134;28;20025;-96
2022/07/03 02:50:08;;;;;;;11.25;7.50;;;;;;;20.87;67.16;99630.84;4987994;28;20033;-93
2022/07/03 02:52:46;;;;;;;10.32;7.03;;;;;;;20.92;67.38;99645.13;5020550;28;20040;-95
2022/07/03 02:55:37;;;;;;;11.35;9.02;;;;;;;20.88;67.48;99644.19;5036851;28;20495;-95
2022/07/03 02:58:24;;;;;;;11.43;8.50;;;;;;;20.92;67.41;99644.34;5053218;28;20501;-94
2022/07/03 03:01:03;;;;;;;10.27;8.43;;;;;;;20.95;67.40;99643.66;5052243;28;20082;-94
2022/07/03 03:03:32;;;;;;;11.48;7.93;;;;;;;20.96;67.10;99634.34;5035212;28;20056;-94
2022/07/03 03:06:03;;;;;;;13.02;9.52;;;;;;;21.05;66.88;99632.34;5019178;28;20119;-94
2022/07/03 03:08:37;;;;;;;15.27;9.27;;;;;;;21.15;65.84;99623.72;5019922;28;20116;-94
2022/07/03 03:11:07;;;;;;;15.13;7.57;;;;;;;21.25;66.04;99635.41;5040097;28;20411;-94
2022/07/03 03:13:32;;;;;;;11.38;7.82;;;;;;;21.18;66.70;99650.44;5023704;28;20115;-94
2022/07/03 03:16:09;;;;;;;10.38;7.32;;;;;;;21.09;66.80;99640.69;5023744;28;20106;-93
2022/07/03 03:18:36;;;;;;;10.95;7.50;;;;;;;21.16;65.88;99640.97;5025126;28;20554;-94
2022/07/03 03:21:03;;;;;;;10.30;7.60;;;;;;;21.23;65.51;99643.97;5024113;28;20036;-93
2022/07/03 03:23:38;;;;;;;10.25;6.90;;;;;;;21.44;64.57;99654.97;5023021;28;20063;-93
2022/07/03 03:26:03;;;;;;;10.68;7.20;;;;;;;21.50;64.15;99652.81;5056315;28;20028;-94
2022/07/03 03:28:29;;;;;;;10.48;6.93;;;;;;;21.40;63.43;99632.09;5022754;28;20025;-94
2022/07/03 03:30:55;;;;;;;7.82;6.55;;;;;;;21.54;63.29;99648.25;5022641;28;20025;-94
2022/07/03 03:33:20;;;;;;;9.80;6.57;;;;;;;21.51;63.58;99640.72;5022687;28;20028;-94
2022/07/03 03:35:46;;;;;;;8.88;6.07;;;;;;;21.52;63.50;99643.16;5024304;28;20491;-93
2022/07/03 03:38:11;;;;;;;10.80;6.57;;;;;;;21.34;64.52;99647.91;5023332;28;20024;-94
2022/07/03 03:40:37;;;;;;;9.13;6.53;;;;;;;21.22;65.00;99644.31;5022663;28;20068;-94
2022/07/03 03:43:03;;;;;;;8.40;6.43;;;;;;;21.24;65.00;99637.34;5022381;28;20028;-94
2022/07/03 03:45:28;;;;;;;11.43;6.35;;;;;;;21.09;65.04;99622.31;5022631;28;20025;-93
2022/07/03 03:47:54;;;;;;;9.27;6.85;;;;;;;21.34;64.74;99649.88;5022070;28;20083;-94
2022/07/03 03:50:19;;;;;;;8.73;7.03;;;;;;;21.45;64.11;99656.56;5023124;28;20024;-94
2022/07/03 03:52:45;;;;;;;10.73;7.38;;;;;;;21.46;63.94;99658.19;5022463;28;20143;-94
2022/07/03 03:55:10;;;;;;;9.52;6.38;;;;;;;21.35;64.95;99667.88;5023021;28;20379;-94
2022/07/03 03:57:36;;;;;;;11.23;7.15;;;;;;;21.17;65.55;99653.53;5022220;28;20039;-94
2022/07/03 04:00:02;;;;;;;9.38;7.40;;;;;;;21.23;65.67;99668.63;5022593;28;20175;-94
2022/07/03 04:02:28;;;;;;;9.63;6.78;;;;;;;21.15;65.66;99664.81;5022258;28;20028;-92
2022/07/03 04:04:53;;;;;;;9.23;6.90;;;;;;;21.20;65.46;99664.59;5022082;28;20055;-94
2022/07/03 04:07:19;;;;;;;12.75;7.50;;;;;;;21.19;65.58;99637.56;5021769;28;20021;-94
2022/07/03 04:09:45;;;;;;;13.07;8.25;;;;;;;21.22;65.83;99658.78;5022503;28;20021;-94
2022/07/03 04:12:11;;;;;;;10.10;7.68;;;;;;;21.26;65.87;99664.41;5022041;28;20024;-94
2022/07/03 04:14:36;;;;;;;10.43;7.38;;;;;;;21.24;65.85;99656.53;5022260;28;20017;-94
2022/07/03 04:17:02;;;;;;;13.63;7.78;;;;;;;21.35;65.27;99656.94;5022501;28;20029;-94
2022/07/03 04:19:28;;;;;;;8.43;7.43;;;;;;;21.40;65.34;99651.25;5022291;28;20025;-94
2022/07/03 04:21:53;;;;;;;10.60;7.05;;;;;;;21.43;64.99;99645.13;5021878;28;20114;-93
2022/07/03 04:24:19;;;;;;;10.95;6.70;;;;;;;21.49;64.40;99653.97;5022130;28;20487;-94
2022/07/03 04:26:44;;;;;;;9.55;6.78;;;;;;;21.58;64.69;99647.28;5022173;28;20041;-94
2022/07/03 04:29:10;;;;;;;9.35;7.05;;;;;;;21.78;63.75;99658.53;5022179;28;20028;-94
2022/07/03 04:31:36;;;;;;;12.70;6.72;;;;;;;21.65;63.58;99644.00;5023057;28;20032;-94
2022/07/03 04:34:01;;;;;;;10.57;6.60;;;;;;;21.88;63.60;99658.13;5022660;28;20512;-94
2022/07/03 04:36:27;;;;;;;10.90;7.32;;;;;;;21.98;63.03;99663.19;5022434;28;20028;-94
2022/07/03 04:38:52;;;;;;;6.97;6.28;;;;;;;21.92;62.90;99639.88;5023082;28;20025;-94
2022/07/03 04:41:18;;;;;;;10.05;6.50;;;;;;;22.08;63.19;99663.91;5021846;28;20487;-94
2022/07/03 04:43:43;;;;;;;8.32;6.50;;;;;;;21.98;63.78;99644.00;5022262;28;20090;-94
2022/07/03 04:46:09;;;;;;;9.77;7.40;;;;;;;22.13;63.29;99664.50;5022334;28;20028;-93
2022/07/03 04:48:34;;;;;;;8.65;6.43;;;;;;;22.11;62.83;99644.84;5022227;28;20021;-94
2022/07/03 04:51:00;;;;;;;10.52;6.97;;;;;;;22.11;62.84;99647.56;5024039;28;20074;-94
2022/07/03 04:53:25;;;;;;;11.30;7.00;;;;;;;22.14;62.43;99654.31;5025347;28;20021;-92
2022/07/03 04:55:52;;;;;;;10.38;6.72;;;;;;;22.21;62.78;99657.31;5024581;28;20024;-92
2022/07/03 04:58:18;;;;;;;9.20;6.82;;;;;;;22.40;63.15;99670.53;5040898;28;20395;-93
2022/07/03 05:00:44;;;;;;;7.47;6.72;;;;;;;22.24;62.74;99645.69;5040501;28;20085;-92
2022/07/03 05:03:09;;;;;;;12.52;7.30;;;;;;;22.41;61.83;99652.91;5023991;28;20506;-90
2022/07/03 05:05:35;;;;;;;8.38;7.55;;;;;;;22.55;62.01;99664.34;5023949;28;20067;-91
2022/07/03 05:08:00;;;;;;;11.88;7.90;;;;;;;22.54;61.95;99671.00;5024075;28;20031;-92
2022/07/03 05:10:26;;;;;;;9.45;8.32;;;;;;;22.65;61.33;99660.38;5023608;28;20502;-91
2022/07/03 05:12:52;;;;;;;11.65;9.30;;;;;;;22.76;61.05;99649.72;5040213;28;20016;-92
2022/07/03 05:15:17;;;;;;;11.73;10.18;;;;;;;22.81;60.57;99652.25;5023866;28;20040;-92
2022/07/03 05:17:43;;;;;;;13.88;10.27;;;;;;;22.60;61.51;99677.09;5041205;28;20039;-91
2022/07/03 05:20:24;;;;;;;13.80;9.70;;;;;;;22.80;61.18;99667.91;5040290;28;20025;-91
2022/07/03 05:23:00;;;;;;;13.20;9.40;;;;;;;22.90;60.46;99679.59;5027719;28;20398;-92
2022/07/03 05:25:26;;;;;;;15.68;8.77;;;;;;;22.89;61.35;99665.06;5057360;28;20028;-92
2022/07/03 05:27:55;;;;;;;10.18;7.65;;;;;;;22.96;60.94;99651.56;5023519;28;20024;-95
2022/07/03 05:30:24;;;;;;;11.07;7.70;;;;;;;23.25;60.31;99668.94;5024693;28;20105;-92
2022/07/03 05:32:50;;;;;;;11.38;9.32;;;;;;;23.28;60.39;99656.47;5023090;28;20029;-91
2022/07/03 05:35:18;;;;;;;14.93;11.57;;;;;;;23.45;59.92;99666.38;5023990;28;20095;-93
2022/07/03 05:37:43;;;;;;;18.08;11.65;;;;;;;23.55;59.88;99674.13;5040586;28;20016;-91
2022/07/03 05:40:09;;;;;;;19.30;10.30;;;;;;;23.55;59.39;99658.47;5023825;28;20074;-91
2022/07/03 05:42:35;;;;;;;13.43;9.10;;;;;;;23.82;58.50;99682.78;5023014;28;20021;-93
2022/07/03 05:45:01;;;;;;;11.43;7.50;;;;;;;23.78;58.66;99669.75;5023527;28;20020;-91
2022/07/03 05:47:26;;;;;;;12.80;7.70;;;;;;;23.89;59.12;99680.25;5023457;28;20106;-92
2022/07/03 05:50:01;;;;;;;17.15;9.88;;;;;;;23.96;58.51;99680.44;5040219;28;20066;-93
2022/07/03 05:52:27;;;;;;;15.27;9.30;;;;;;;23.99;58.04;99677.78;5042821;28;20049;-92
2022/07/03 05:54:53;;;;;;;15.10;9.57;;;;;;;24.02;58.29;99662.53;5023473;28;20024;-93
2022/07/03 05:57:20;;;;;;;16.45;9.75;;;;;;;24.04;57.94;99670.44;5039958;28;20082;-93
2022/07/03 05:59:45;;;;;;;15.25;9.63;;;;;;;24.12;57.37;99674.97;5023480;28;20107;-93
2022/07/03 06:02:11;;;;;;;13.80;9.52;;;;;;;24.17;57.63;99663.69;5023554;28;20029;-94
2022/07/03 06:04:36;;;;;;;20.15;10.93;;;;;;;24.12;57.78;99663.97;5023091;28;20024;-92
2022/07/03 06:07:02;;;;;;;18.52;9.75;;;;;;;24.28;57.38;99672.22;5023173;28;20036;-92
2022/07/03 06:09:27;;;;;;;11.85;9.55;;;;;;;24.38;57.70;99678.03;5039469;28;20030;-93
2022/07/03 06:11:53;;;;;;;12.05;8.90;;;;;;;24.55;56.42;99668.66;5022938;28;20060;-93
2022/07/03 06:14:18;;;;;;;12.55;9.20;;;;;;;24.73;56.19;99685.59;5022997;28;20064;-92
2022/07/03 06:16:44;;;;;;;13.75;9.07;;;;;;;24.67;56.44;99670.50;5023664;28;20028;-92
2022/07/03 06:19:09;;;;;;;11.60;8.93;;;;;;;24.81;56.63;99687.38;5040967;28;20069;-93
2022/07/03 06:21:35;;;;;;;13.70;8.25;;;;;;;25.03;55.92;99687.91;5039486;28;20063;-93
2022/07/03 06:24:00;;;;;;;14.68;8.68;;;;;;;24.94;55.72;99668.78;5023398;28;20032;-92
2022/07/03 06:26:27;;;;;;;13.32;8.15;;;;;;;25.00;55.59;99677.56;5023709;28;20177;-93
2022/07/03 06:28:55;;;;;;;9.85;8.00;;;;;;;25.15;55.37;99682.28;5023659;28;20028;-94
2022/07/03 06:31:20;;;;;;;12.57;7.75;;;;;;;25.19;55.16;99672.13;5023643;28;20020;-93
2022/07/03 06:33:46;;;;;;;9.88;7.28;;;;;;;25.37;54.74;99677.25;5022969;28;20019;-93
2022/07/03 06:36:11;;;;;;;14.57;7.40;;;;;;;25.31;54.36;99660.19;5023147;28;20017;-93
2022/07/03 06:38:37;;;;;;;9.77;6.78;;;;;;;25.38;53.96;99660.38;5022917;28;20157;-92
2022/07/03 06:41:02;;;;;;;11.98;7.20;;;;;;;25.59;53.58;99671.03;5022927;28;20028;-93
2022/07/03 06:43:28;;;;;;;13.07;7.03;;;;;;;25.57;54.02;99659.56;5023461;28;20111;-92
2022/07/03 06:45:53;;;;;;;14.10;7.35;;;;;;;25.77;53.37;99665.06;5022960;28;20024;-93
2022/07/03 06:48:19;;;;;;;10.50;7.43;;;;;;;25.91;52.97;99664.59;5022356;28;20021;-92
2022/07/03 06:50:45;;;;;;;16.00;7.28;;;;;;;26.03;52.94;99658.91;5038919;28;20070;-92
2022/07/03 06:53:11;;;;;;;9.82;7.28;;;;;;;26.06;53.21;99655.41;5022316;28;20050;-92
2022/07/03 06:55:36;;;;;;;11.50;7.18;;;;;;;26.25;52.81;99664.81;5038832;28;20434;-93
2022/07/03 06:58:02;;;;;;;11.93;7.25;;;;;;;26.29;53.09;99660.94;5022376;28;20039;-93
2022/07/03 07:00:27;;;;;;;8.02;6.70;;;;;;;26.51;52.60;99672.38;5039016;28;20127;-93
2022/07/03 07:02:53;;;;;;;9.73;6.32;;;;;;;26.60;52.17;99665.47;5022439;28;20414;-92
2022/07/03 07:05:18;;;;;;;9.85;6.93;;;;;;;26.70;52.19;99664.03;5022939;28;20078;-93
2022/07/03 07:07:44;;;;;;;10.57;7.43;;;;;;;26.83;52.91;99656.34;5021779;28;20025;-93
2022/07/03 07:10:09;;;;;;;11.68;7.30;;;;;;;26.92;52.59;99662.41;5038850;28;20035;-93
2022/07/03 07:12:35;;;;;;;9.40;6.65;;;;;;;27.10;51.77;99656.34;5022375;28;20024;-94
2022/07/03 07:15:01;;;;;;;9.55;6.85;;;;;;;27.09;51.13;99649.22;5038303;28;20032;-93
2022/07/03 07:17:26;;;;;;;12.10;7.18;;;;;;;27.24;51.39;99650.25;5021533;28;20024;-92
2022/07/03 07:19:51;;;;;;;10.00;6.78;;;;;;;27.43;51.38;99658.41;5038130;28;20032;-94
2022/07/03 07:22:17;;;;;;;12.82;6.85;;;;;;;27.46;50.08;99651.34;5021509;28;20044;-92
2022/07/03 07:24:46;;;;;;;9.60;6.47;;;;;;;27.55;50.04;99660.13;5022414;28;20123;-92
2022/07/03 07:27:11;;;;;;;10.05;6.50;;;;;;;27.57;50.53;99644.75;5021838;28;20116;-92
2022/07/03 07:29:37;;;;;;;7.20;6.32;;;;;;;27.68;49.68;99642.09;5022089;28;20032;-91
2022/07/03 07:32:04;;;;;;;9.68;6.50;;;;;;;27.81;50.00;99648.19;5038121;28;20383;-91
2022/07/03 07:34:29;;;;;;;7.85;6.25;;;;;;;27.92;49.56;99656.66;5021511;28;20033;-92
2022/07/03 07:36:55;;;;;;;7.60;6.25;;;;;;;28.08;48.97;99657.22;5038166;28;20031;-92
2022/07/03 07:39:23;;;;;;;10.98;6.50;;;;;;;28.10;48.85;99656.81;5022006;28;20028;-93
2022/07/03 07:41:48;;;;;;;8.02;6.10;;;;;;;28.22;48.99;99659.31;5038461;28;20031;-93
2022/07/03 07:44:14;;;;;;;8.10;6.50;;;;;;;28.22;48.36;99651.00;5021179;28;20032;-92
2022/07/03 07:46:39;;;;;;;8.15;5.60;;;;;;;28.34;46.43;99653.50;5021482;28;20086;-94
2022/07/03 07:49:05;;;;;;;10.27;5.78;;;;;;;28.41;45.24;99666.63;5021393;28;20059;-91
2022/07/03 07:51:30;;;;;;;8.90;6.15;;;;;;;28.51;45.23;99659.59;5021896;28;20052;-91
2022/07/03 07:53:57;;;;;;;8.88;5.68;;;;;;;28.58;45.39;99654.94;5021524;28;20115;-93
2022/07/03 07:56:24;;;;;;;11.10;6.00;;;;;;;28.67;46.46;99657.38;5024230;28;20028;-92
2022/07/03 07:58:51;;;;;;;14.25;6.28;;;;;;;28.83;45.50;99670.16;5025514;28;20024;-92
2022/07/03 08:06:55;;;;;;;7.80;5.70;;;;;;;29.07;46.58;99641.78;5061204;28;20428;-93
2022/07/03 08:09:20;;;;;;;8.55;5.68;;;;;;;29.19;44.37;99655.34;5042052;28;20025;-94
2022/07/03 08:11:46;;;;;;;10.15;6.03;;;;;;;29.37;44.28;99661.00;5024789;28;20031;-92
2022/07/03 08:14:12;;;;;;;7.10;5.78;;;;;;;29.18;44.60;99666.84;5024467;28;20028;-94
2022/07/03 08:16:38;;;;;;;9.95;5.82;;;;;;;29.15;44.62;99653.75;5025275;28;20510;-94
2022/07/03 08:19:04;;;;;;;7.85;5.75;;;;;;;29.34;44.06;99661.78;5025333;28;20383;-92
2022/07/03 08:21:30;;;;;;;7.40;6.20;;;;;;;29.36;43.67;99658.59;5024954;28;20063;-92
2022/07/03 08:23:55;;;;;;;7.35;5.72;;;;;;;29.32;44.29;99661.34;5024411;28;20028;-94
2022/07/03 08:26:21;;;;;;;9.70;5.72;;;;;;;29.35;44.44;99659.81;5041317;28;20028;-94
2022/07/03 08:28:47;;;;;;;8.30;5.82;;;;;;;29.41;43.83;99653.50;5041436;28;20024;-94
2022/07/03 08:31:12;;;;;;;7.47;5.53;;;;;;;29.54;43.13;99667.81;5024832;28;20028;-94
2022/07/03 08:33:40;;;;;;;8.77;5.28;;;;;;;29.64;41.42;99652.41;5025171;28;20024;-93
2022/07/03 08:36:06;;;;;;;6.78;4.70;;;;;;;29.76;41.00;99660.41;5024788;28;20486;-92
2022/07/03 08:38:34;;;;;;;9.93;5.15;;;;;;;29.82;40.54;99663.56;5024412;28;20120;-93
2022/07/03 08:41:00;;;;;;;9.75;4.90;;;;;;;29.88;39.54;99661.22;5025012;28;20035;-94
2022/07/03 08:43:29;;;;;;;4.63;3.83;;;;;;;29.95;36.77;99675.13;5041517;28;20447;-92
2022/07/03 08:45:56;;;;;;;6.55;4.00;;;;;;;29.83;36.83;99664.38;5025614;28;20033;-91
2022/07/03 08:48:22;;;;;;;6.95;4.32;;;;;;;29.84;36.72;99665.97;5026229;28;20021;-96
2022/07/03 08:50:47;;;;;;;5.38;4.28;;;;;;;29.92;37.39;99657.25;5041693;28;20176;-96
2022/07/03 08:53:13;;;;;;;8.73;4.05;;;;;;;30.15;35.70;99667.22;5041697;28;20045;-94
2022/07/03 08:55:38;;;;;;;5.43;3.88;;;;;;;30.14;34.99;99660.88;5024414;28;20020;-94
2022/07/03 08:58:04;;;;;;;9.98;4.00;;;;;;;30.19;36.60;99659.69;5025809;28;20032;-94
2022/07/03 09:00:30;;;;;;;6.22;4.28;;;;;;;30.36;37.26;99666.50;5025174;28;20482;-94
2022/07/03 09:02:55;;;;;;;11.00;4.03;;;;;;;30.38;36.94;99666.88;5024429;28;20052;-94
2022/07/03 09:05:21;;;;;;;8.93;4.25;;;;;;;30.49;36.67;99673.25;5024495;28;20032;-93
2022/07/03 09:07:47;;;;;;;10.60;4.03;;;;;;;30.49;35.46;99659.38;5041125;28;20115;-93
2022/07/03 09:10:14;;;;;;;5.47;3.92;;;;;;;30.47;35.34;99656.19;5024438;28;20407;-94
2022/07/03 09:12:40;;;;;;;5.32;3.67;;;;;;;30.45;35.47;99663.34;5024019;28;20474;-94
2022/07/03 09:15:07;;;;;;;4.43;4.00;;;;;;;30.54;35.13;99661.72;5041010;28;20024;-95
2022/07/03 09:17:33;;;;;;;6.22;3.92;;;;;;;30.53;35.24;99662.94;5025159;28;20027;-92
2022/07/03 09:20:02;;;;;;;5.22;3.88;;;;;;;30.66;34.39;99663.31;5024297;28;20025;-92
2022/07/03 09:22:29;;;;;;;7.63;4.07;;;;;;;30.66;34.48;99646.66;5024654;28;20027;-92
2022/07/03 09:25:06;;;;;;;6.00;3.97;;;;;;;30.88;34.58;99657.78;5024608;28;20029;-93
2022/07/03 09:27:32;;;;;;;6.80;3.85;;;;;;;30.90;33.85;99652.59;5024202;28;20020;-92
2022/07/03 09:29:59;;;;;;;5.82;3.65;;;;;;;30.89;32.60;99653.81;5040163;28;20406;-92
2022/07/03 09:32:25;;;;;;;6.20;3.65;;;;;;;30.88;33.06;99643.88;5024070;28;20028;-92
2022/07/03 09:35:13;;;;;;;9.20;4.13;;;;;;;30.90;33.96;99644.25;5040445;28;20024;-93
2022/07/03 09:37:39;;;;;;;7.82;4.00;;;;;;;31.08;34.58;99642.22;5024420;28;20039;-93
2022/07/03 09:40:08;;;;;;;8.55;3.80;;;;;;;31.05;33.22;99634.72;5023295;28;20025;-92
2022/07/03 09:42:33;;;;;;;7.15;4.03;;;;;;;31.20;33.54;99646.59;5023345;28;20035;-92
2022/07/03 09:44:59;;;;;;;6.45;3.55;;;;;;;31.38;33.21;99644.53;5023629;28;20021;-92
2022/07/03 09:47:25;;;;;;;5.25;3.70;;;;;;;31.38;32.26;99633.41;5023875;28;20020;-93
2022/07/03 09:49:55;;;;;;;5.80;3.75;;;;;;;31.46;32.22;99639.78;5023145;28;20020;-93
2022/07/03 09:52:38;;;;;;;5.43;3.40;;;;;;;31.52;32.27;99638.13;5040063;28;20045;-93
2022/07/03 09:55:09;;;;;;;6.50;3.45;;;;;;;31.66;32.63;99644.84;5023528;28;20486;-92
2022/07/03 09:57:43;;;;;;;5.90;3.55;;;;;;;31.61;31.38;99637.72;5056262;28;20029;-95
2022/07/03 10:00:16;;;;;;;5.97;3.33;;;;;;;31.66;31.66;99645.63;5023484;28;20020;-94
2022/07/03 10:02:55;;;;;;;8.98;3.80;;;;;;;31.58;31.23;99627.38;5055917;28;20059;-95
2022/07/03 10:05:23;;;;;;;8.15;3.88;;;;;;;31.59;31.54;99607.50;5023319;28;20024;-94
2022/07/03 10:07:54;;;;;;;4.50;3.60;;;;;;;31.48;32.03;99606.75;5040941;28;20131;-94
2022/07/03 10:10:20;;;;;;;7.03;3.58;;;;;;;31.56;31.90;99597.16;5040062;28;20029;-94
2022/07/03 10:12:47;;;;;;;7.32;3.90;;;;;;;31.72;32.03;99609.81;5023092;28;20028;-94
2022/07/03 10:15:12;;;;;;;6.07;3.60;;;;;;;31.82;31.89;99611.75;5024362;28;20046;-94
2022/07/03 10:17:38;;;;;;;5.72;3.33;;;;;;;31.90;31.06;99602.13;5023044;28;20091;-94
2022/07/03 10:20:04;;;;;;;7.97;3.38;;;;;;;32.03;30.80;99608.03;5039587;28;20052;-95
2022/07/03 10:22:29;;;;;;;5.85;3.25;;;;;;;32.04;31.37;99597.69;5023353;28;20104;-94
2022/07/03 10:24:54;;;;;;;6.60;3.10;;;;;;;32.06;30.18;99593.28;5023046;28;20033;-95
2022/07/03 10:27:20;;;;;;;11.52;3.45;;;;;;;32.23;29.69;99599.94;5023293;28;20111;-95
2022/07/03 10:29:46;;;;;;;8.07;3.53;;;;;;;32.29;30.03;99597.50;5022558;28;20020;-94
2022/07/03 10:32:11;;;;;;;7.97;3.35;;;;;;;32.29;29.50;99589.13;5022813;28;20107;-93
2022/07/03 10:34:41;;;;;;;4.70;3.60;;;;;;;32.33;30.14;99582.34;5022562;28;20021;-94
2022/07/03 10:37:06;;;;;;;5.90;3.50;;;;;;;32.18;30.32;99595.59;5040506;28;20119;-95
2022/07/03 10:39:33;;;;;;;5.55;3.10;;;;;;;32.21;31.08;99591.22;5023297;28;20059;-93
2022/07/03 10:44:51;;;;;;;6.80;3.40;;;;;;;32.21;30.70;99586.41;5044969;28;20063;-93
2022/07/03 10:47:45;;;;;;;5.68;3.58;;;;;;;32.23;30.11;99591.59;5022462;28;20028;-95
2022/07/03 10:50:23;;;;;;;7.05;3.45;;;;;;;32.34;30.38;99591.50;5039119;28;20033;-93
2022/07/03 10:52:48;;;;;;;5.00;2.90;;;;;;;32.36;30.06;99580.72;5038970;28;20084;-94
2022/07/03 10:55:15;;;;;;;8.15;3.40;;;;;;;32.47;30.08;99575.03;5039042;28;20025;-93
2022/07/03 10:57:41;;;;;;;3.72;3.15;;;;;;;32.63;29.97;99575.31;5022592;28;20021;-93
2022/07/03 11:00:14;;;;;;;4.63;2.95;;;;;;;32.70;29.86;99580.81;5039002;28;20047;-94
2022/07/03 11:02:50;;;;;;;5.63;3.70;;;;;;;32.61;29.48;99584.09;5039247;28;20096;-95
2022/07/03 11:05:20;;;;;;;5.35;2.90;;;;;;;32.60;29.25;99584.50;5022952;28;20116;-94
2022/07/03 11:07:54;;;;;;;6.03;3.00;;;;;;;32.69;29.32;99584.03;5039509;28;20024;-94
2022/07/03 11:10:19;;;;;;;6.95;3.22;;;;;;;32.67;28.65;99578.06;5056378;28;20115;-93
2022/07/03 11:12:56;;;;;;;8.80;3.22;;;;;;;32.73;29.02;99566.06;5055819;28;20070;-93
2022/07/03 11:15:30;;;;;;;11.50;3.50;;;;;;;33.03;29.28;99578.47;5038710;28;20043;-93
2022/07/03 11:18:05;;;;;;;7.55;3.53;;;;;;;33.20;28.88;99574.72;5074072;28;20017;-94
2022/07/03 11:20:39;;;;;;;5.85;3.38;;;;;;;33.35;28.71;99575.31;5055318;28;20024;-93
2022/07/03 11:23:29;;;;;;;9.93;3.25;;;;;;;33.15;29.07;99552.84;5039590;28;20429;-95
2022/07/03 11:26:21;;;;;;;6.38;3.20;;;;;;;33.28;28.80;99560.66;5022454;28;20025;-93
2022/07/03 11:28:46;;;;;;;4.93;3.25;;;;;;;33.19;29.17;99559.16;5051679;28;20036;-93
2022/07/03 11:31:15;;;;;;;4.20;2.92;;;;;;;33.21;29.45;99569.91;5075687;28;20051;-96
2022/07/03 11:33:53;;;;;;;5.75;3.10;;;;;;;33.31;29.62;99568.19;5059664;28;20031;-96
2022/07/03 11:36:21;;;;;;;5.68;3.08;;;;;;;33.40;29.28;99560.09;5058705;28;20032;-92
2022/07/03 11:38:59;;;;;;;7.15;3.22;;;;;;;33.17;29.45;99564.38;5060390;28;20032;-95
2022/07/03 11:41:26;;;;;;;7.93;3.65;;;;;;;33.04;29.76;99532.63;5059275;28;20024;-95
2022/07/03 11:43:53;;;;;;;5.65;3.20;;;;;;;33.15;29.96;99535.31;5026811;28;20113;-95